createdAt,value
2022-10-23T00:00:24.284Z,-136.99
2022-10-23T00:01:24.248Z,-136.99
2022-10-23T00:02:24.258Z,-136.99
2022-10-23T00:03:24.193Z,-136.99
2022-10-23T00:04:24.176Z,-135.77
2022-10-23T00:05:24.170Z,-135.77
2022-10-23T00:06:24.188Z,-135.77
2022-10-23T00:07:24.232Z,-135.77
2022-10-23T00:08:24.140Z,-135.77
2022-10-23T00:09:24.112Z,-135.77
2022-10-23T00:10:24.099Z,-135.77
2022-10-23T00:11:24.089Z,-135.77
2022-10-23T00:12:24.120Z,-135.77
2022-10-23T00:13:24.051Z,-135.77
2022-10-23T00:14:24.082Z,-135.77
2022-10-23T00:15:24.030Z,-135.77
2022-10-23T00:16:23.992Z,-135.77
2022-10-23T00:17:27.001Z,-135.77
2022-10-23T00:18:26.979Z,-135.77
2022-10-23T00:19:23.986Z,-135.77
2022-10-23T00:20:23.931Z,-135.77
2022-10-23T00:21:23.922Z,-135.77
2022-10-23T00:22:23.922Z,-135.77
2022-10-23T00:23:23.923Z,-135.77
2022-10-23T00:24:23.925Z,-135.77
2022-10-23T00:25:23.875Z,-135.77
2022-10-23T00:26:23.854Z,-135.77
2022-10-23T00:27:23.856Z,-135.77
2022-10-23T00:28:23.828Z,-135.77
2022-10-23T00:29:23.845Z,-135.77
2022-10-23T00:30:23.805Z,-135.77
2022-10-23T00:31:23.796Z,-135.77
2022-10-23T00:32:23.826Z,-135.77
2022-10-23T00:33:23.769Z,-135.77
2022-10-23T00:34:23.756Z,-135.77
2022-10-23T00:35:23.727Z,-135.77
2022-10-23T00:36:23.707Z,-135.77
2022-10-23T00:37:26.686Z,-135.77
2022-10-23T00:38:26.699Z,-134.56
2022-10-23T00:39:23.688Z,-135.77
2022-10-23T00:40:23.648Z,-135.77
2022-10-23T00:41:23.628Z,-134.56
2022-10-23T00:42:23.666Z,-134.56
2022-10-23T00:43:23.601Z,-134.56
2022-10-23T00:44:23.619Z,-134.56
2022-10-23T00:45:23.579Z,-135.77
2022-10-23T00:46:23.580Z,-135.77
2022-10-23T00:47:23.610Z,-135.77
2022-10-23T00:48:23.532Z,-134.56
2022-10-23T00:49:23.531Z,-134.56
2022-10-23T00:50:23.502Z,-134.56
2022-10-23T00:51:23.492Z,-134.56
2022-10-23T00:52:23.487Z,-134.56
2022-10-23T00:53:23.491Z,-134.56
2022-10-23T00:54:24.719Z,-134.56
2022-10-23T00:55:23.423Z,-134.56
2022-10-23T00:56:23.463Z,-134.56
2022-10-23T00:57:26.475Z,-134.56
2022-10-23T00:58:26.413Z,-134.56
2022-10-23T00:59:23.400Z,-134.56
2022-10-23T01:00:23.384Z,-134.56
2022-10-23T01:01:23.375Z,-134.56
2022-10-23T01:02:23.408Z,-134.56
2022-10-23T01:03:23.370Z,-134.56
2022-10-23T01:04:23.317Z,-134.56
2022-10-23T01:05:23.316Z,-134.56
2022-10-23T01:06:23.286Z,-134.56
2022-10-23T01:07:23.307Z,-134.56
2022-10-23T01:08:23.255Z,-134.56
2022-10-23T01:09:23.238Z,-133.34
2022-10-23T01:10:23.217Z,-133.34
2022-10-23T01:11:23.206Z,-134.56
2022-10-23T01:12:23.222Z,-134.56
2022-10-23T01:13:30.152Z,-134.56
2022-10-23T01:14:23.132Z,-134.56
2022-10-23T01:15:23.122Z,-134.56
2022-10-23T01:16:23.102Z,-134.56
2022-10-23T01:17:26.120Z,-134.56
2022-10-23T01:18:26.083Z,-134.56
2022-10-23T01:19:23.074Z,-134.56
2022-10-23T01:20:23.043Z,-134.56
2022-10-23T01:21:23.034Z,-134.56
2022-10-23T01:23:23.034Z,-134.56
2022-10-23T01:24:22.984Z,-134.56
2022-10-23T01:25:22.975Z,-134.56
2022-10-23T01:26:22.984Z,-134.56
2022-10-23T01:27:22.948Z,-134.56
2022-10-23T01:28:22.959Z,-134.56
2022-10-23T01:29:22.977Z,-134.56
2022-10-23T01:30:22.904Z,-134.56
2022-10-23T01:31:22.895Z,-134.56
2022-10-23T01:32:22.878Z,-134.56
2022-10-23T01:33:22.859Z,-133.34
2022-10-23T01:34:22.846Z,-134.56
2022-10-23T01:35:22.868Z,-133.34
2022-10-23T01:36:22.820Z,-133.34
2022-10-23T01:37:25.798Z,-133.34
2022-10-23T01:38:25.808Z,-132.12
2022-10-23T01:39:22.799Z,-132.12
2022-10-23T01:40:22.759Z,-132.12
2022-10-23T01:41:22.742Z,-133.34
2022-10-23T01:42:22.730Z,-133.34
2022-10-23T01:43:22.709Z,-133.34
2022-10-23T01:44:22.742Z,-133.34
2022-10-23T01:45:22.680Z,-133.34
2022-10-23T01:46:22.670Z,-133.34
2022-10-23T01:47:22.665Z,-133.34
2022-10-23T01:48:22.643Z,-133.34
2022-10-23T01:49:22.623Z,-133.34
2022-10-23T01:50:22.687Z,-133.34
2022-10-23T01:51:22.593Z,-133.34
2022-10-23T01:52:22.593Z,-133.34
2022-10-23T01:53:22.572Z,-133.34
2022-10-23T01:54:22.565Z,-133.34
2022-10-23T01:55:22.543Z,-134.56
2022-10-23T01:56:22.553Z,-133.34
2022-10-23T01:57:25.515Z,-134.56
2022-10-23T01:58:25.515Z,-133.34
2022-10-23T01:59:22.484Z,-133.34
2022-10-23T02:00:22.532Z,-133.34
2022-10-23T02:01:22.589Z,-133.34
2022-10-23T02:02:22.529Z,-133.34
2022-10-23T02:03:22.426Z,-133.34
2022-10-23T02:04:22.417Z,-133.34
2022-10-23T02:05:22.396Z,-133.34
2022-10-23T02:06:22.449Z,-133.34
2022-10-23T02:07:22.367Z,-133.34
2022-10-23T02:08:22.358Z,-133.34
2022-10-23T02:09:22.337Z,-133.34
2022-10-23T02:10:22.328Z,-133.34
2022-10-23T02:11:22.313Z,-133.34
2022-10-23T02:12:22.371Z,-133.34
2022-10-23T02:13:22.289Z,-133.34
2022-10-23T02:14:22.269Z,-132.12
2022-10-23T02:15:22.251Z,-132.12
2022-10-23T02:16:22.239Z,-132.12
2022-10-23T02:17:25.251Z,-132.12
2022-10-23T02:18:25.221Z,-132.12
2022-10-23T02:19:22.198Z,-132.12
2022-10-23T02:20:22.211Z,-132.12
2022-10-23T02:21:22.171Z,-132.12
2022-10-23T02:22:22.204Z,-132.12
2022-10-23T02:23:22.142Z,-132.12
2022-10-23T02:24:22.131Z,-132.12
2022-10-23T02:25:22.109Z,-132.12
2022-10-23T02:26:22.092Z,-132.12
2022-10-23T02:27:22.084Z,-132.12
2022-10-23T02:28:22.094Z,-132.12
2022-10-23T02:29:22.053Z,-132.12
2022-10-23T02:30:22.049Z,-132.12
2022-10-23T02:31:22.036Z,-132.12
2022-10-23T02:32:22.036Z,-132.12
2022-10-23T02:33:21.994Z,-130.90
2022-10-23T02:34:21.983Z,-130.90
2022-10-23T02:35:21.963Z,-130.90
2022-10-23T02:36:21.976Z,-130.90
2022-10-23T02:37:24.940Z,-130.90
2022-10-23T02:38:25.004Z,-130.90
2022-10-23T02:39:21.906Z,-130.90
2022-10-23T02:40:21.887Z,-130.90
2022-10-23T02:41:21.880Z,-130.90
2022-10-23T02:42:21.866Z,-130.90
2022-10-23T02:43:21.847Z,-130.90
2022-10-23T02:44:21.866Z,-130.90
2022-10-23T02:45:21.816Z,-130.90
2022-10-23T02:46:21.807Z,-130.90
2022-10-23T02:47:21.791Z,-130.90
2022-10-23T02:48:21.770Z,-130.90
2022-10-23T02:49:21.757Z,-130.90
2022-10-23T02:50:21.772Z,-130.90
2022-10-23T02:51:21.730Z,-130.90
2022-10-23T02:52:21.718Z,-130.90
2022-10-23T02:53:21.702Z,-130.90
2022-10-23T02:54:21.691Z,-129.68
2022-10-23T02:55:21.722Z,-129.68
2022-10-23T02:56:21.660Z,-129.68
2022-10-23T02:57:24.643Z,-129.68
2022-10-23T02:58:24.643Z,-129.68
2022-10-23T02:59:21.611Z,-129.68
2022-10-23T03:00:21.601Z,-129.68
2022-10-23T03:01:21.724Z,-129.68
2022-10-23T03:02:21.717Z,-129.68
2022-10-23T03:03:21.553Z,-128.46
2022-10-23T03:04:21.553Z,-128.46
2022-10-23T03:05:21.533Z,-128.46
2022-10-23T03:06:21.524Z,-128.46
2022-10-23T03:07:21.564Z,-128.46
2022-10-23T03:08:21.496Z,-128.28
2022-10-23T03:09:21.479Z,-127.24
2022-10-23T03:10:21.473Z,-127.24
2022-10-23T03:11:21.446Z,-127.24
2022-10-23T03:12:21.447Z,-127.24
2022-10-23T03:13:21.476Z,-128.23
2022-10-23T03:14:21.419Z,-128.29
2022-10-23T03:15:21.397Z,-128.46
2022-10-23T03:16:21.388Z,-128.29
2022-10-23T03:17:24.368Z,-127.24
2022-10-23T03:18:24.399Z,-127.24
2022-10-23T03:19:21.347Z,-127.24
2022-10-23T03:20:21.338Z,-127.24
2022-10-23T03:21:21.318Z,-127.24
2022-10-23T03:22:21.360Z,-127.24
2022-10-23T03:23:21.300Z,-127.24
2022-10-23T03:24:21.279Z,-127.24
2022-10-23T03:25:21.271Z,-127.24
2022-10-23T03:26:21.265Z,-127.24
2022-10-23T03:27:21.268Z,-127.24
2022-10-23T03:28:21.251Z,-127.24
2022-10-23T03:29:21.220Z,-127.24
2022-10-23T03:30:21.204Z,-127.24
2022-10-23T03:31:21.181Z,-127.06
2022-10-23T03:32:21.180Z,-127.00
2022-10-23T03:33:21.220Z,-126.70
2022-10-23T03:34:21.141Z,-126.69
2022-10-23T03:35:21.123Z,-126.63
2022-10-23T03:36:21.122Z,-126.66
2022-10-23T03:37:24.094Z,-126.03
2022-10-23T03:38:24.164Z,-126.03
2022-10-23T03:39:21.077Z,-126.03
2022-10-23T03:40:21.062Z,-126.03
2022-10-23T03:41:21.045Z,-125.31
2022-10-23T03:42:21.036Z,-124.81
2022-10-23T03:43:21.014Z,-125.41
2022-10-23T03:44:21.055Z,-125.48
2022-10-23T03:45:20.998Z,-125.65
2022-10-23T03:46:20.976Z,-125.56
2022-10-23T03:47:20.977Z,-125.65
2022-10-23T03:48:20.958Z,-125.69
2022-10-23T03:49:20.936Z,-125.80
2022-10-23T03:50:20.958Z,-125.75
2022-10-23T03:51:20.916Z,-125.76
2022-10-23T03:52:20.916Z,-125.92
2022-10-23T03:53:20.887Z,-125.86
2022-10-23T03:54:20.878Z,-125.90
2022-10-23T03:55:20.868Z,-126.00
2022-10-23T03:56:20.889Z,-126.00
2022-10-23T03:57:23.830Z,-125.99
2022-10-23T03:58:23.840Z,-125.48
2022-10-23T03:59:20.817Z,-125.33
2022-10-23T04:00:20.800Z,-125.08
2022-10-23T04:01:20.853Z,-124.81
2022-10-23T04:02:20.925Z,-125.07
2022-10-23T04:03:20.780Z,-125.38
2022-10-23T04:04:20.745Z,-125.44
2022-10-23T04:05:20.731Z,-126.01
2022-10-23T04:06:20.719Z,-126.03
2022-10-23T04:07:20.702Z,-126.03
2022-10-23T04:08:20.732Z,-126.03
2022-10-23T04:09:20.685Z,-126.03
2022-10-23T04:10:20.667Z,-125.92
2022-10-23T04:11:20.653Z,-125.75
2022-10-23T04:12:20.648Z,-125.58
2022-10-23T04:13:20.673Z,-125.31
2022-10-23T04:14:20.615Z,-124.81
2022-10-23T04:15:20.595Z,-125.16
2022-10-23T04:16:20.592Z,-124.80
2022-10-23T04:17:23.615Z,-124.53
2022-10-23T04:18:23.615Z,-124.04
2022-10-23T04:19:20.545Z,-124.32
2022-10-23T04:20:20.540Z,-124.47
2022-10-23T04:21:20.517Z,-123.69
2022-10-23T04:22:23.543Z,-123.60
2022-10-23T04:23:21.499Z,-123.47
2022-10-23T04:24:20.537Z,-123.20
2022-10-23T04:25:20.466Z,-122.41
2022-10-23T04:26:20.458Z,-121.71
2022-10-23T04:27:20.437Z,-121.44
2022-10-23T04:28:20.438Z,-121.20
2022-10-23T04:29:20.409Z,-121.01
2022-10-23T04:30:20.452Z,-120.84
2022-10-23T04:31:20.386Z,-120.63
2022-10-23T04:32:20.371Z,-120.77
2022-10-23T04:33:20.364Z,-120.50
2022-10-23T04:34:20.348Z,-120.38
2022-10-23T04:35:20.328Z,-120.16
2022-10-23T04:36:20.347Z,-120.11
2022-10-23T04:37:23.300Z,-120.04
2022-10-23T04:38:23.335Z,-119.81
2022-10-23T04:39:20.278Z,-119.77
2022-10-23T04:40:20.271Z,-119.67
2022-10-23T04:41:20.252Z,-119.79
2022-10-23T04:42:20.310Z,-119.43
2022-10-23T04:43:20.252Z,-119.45
2022-10-23T04:44:20.212Z,-119.47
2022-10-23T04:45:20.201Z,-119.26
2022-10-23T04:46:20.193Z,-119.23
2022-10-23T04:47:20.171Z,-118.76
2022-10-23T04:48:20.183Z,-118.66
2022-10-23T04:49:20.143Z,-118.80
2022-10-23T04:50:20.133Z,-118.62
2022-10-23T04:51:20.125Z,-118.82
2022-10-23T04:52:20.105Z,-118.83
2022-10-23T04:53:20.155Z,-118.88
2022-10-23T04:54:20.083Z,-118.83
2022-10-23T04:55:20.068Z,-118.92
2022-10-23T04:56:20.074Z,-118.83
2022-10-23T04:57:23.038Z,-118.81
2022-10-23T04:58:23.087Z,-118.54
2022-10-23T04:59:20.007Z,-118.50
2022-10-23T05:00:20.007Z,-118.43
2022-10-23T05:01:20.041Z,-118.05
2022-10-23T05:02:19.985Z,-118.34
2022-10-23T05:03:19.962Z,-117.65
2022-10-23T05:04:19.987Z,-116.73
2022-10-23T05:05:19.930Z,-117.10
2022-10-23T05:06:19.928Z,-116.87
2022-10-23T05:08:19.901Z,-117.26
2022-10-23T05:09:19.879Z,-117.39
2022-10-23T05:10:20.058Z,-117.11
2022-10-23T05:11:19.850Z,-116.82
2022-10-23T05:12:19.841Z,-117.14
2022-10-23T05:13:19.847Z,-117.48
2022-10-23T05:14:22.688Z,-117.25
2022-10-23T05:15:19.799Z,-116.99
2022-10-23T05:16:19.841Z,-117.17
2022-10-23T05:17:22.773Z,-117.65
2022-10-23T05:18:22.774Z,-117.62
2022-10-23T05:19:22.013Z,-117.68
2022-10-23T05:20:19.732Z,-117.72
2022-10-23T05:21:19.713Z,-117.54
2022-10-23T05:22:19.756Z,-117.54
2022-10-23T05:23:19.682Z,-117.56
2022-10-23T05:24:19.676Z,-117.54
2022-10-23T05:25:19.654Z,-117.64
2022-10-23T05:26:19.656Z,-117.58
2022-10-23T05:27:19.635Z,-117.43
2022-10-23T05:28:19.671Z,-117.44
2022-10-23T05:29:19.605Z,-117.35
2022-10-23T05:30:19.596Z,-117.22
2022-10-23T05:31:19.597Z,-116.96
2022-10-23T05:33:19.546Z,-116.27
2022-10-23T05:34:19.565Z,-116.00
2022-10-23T05:35:19.516Z,-115.83
2022-10-23T05:36:19.511Z,-115.70
2022-10-23T05:37:22.516Z,-115.71
2022-10-23T05:38:22.496Z,-115.40
2022-10-23T05:39:19.466Z,-115.20
2022-10-23T05:40:19.458Z,-115.40
2022-10-23T05:41:19.438Z,-115.36
2022-10-23T05:42:19.458Z,-115.28
2022-10-23T05:43:19.413Z,-115.26
2022-10-23T05:44:19.400Z,-115.39
2022-10-23T05:45:19.379Z,-115.46
2022-10-23T05:46:19.370Z,-115.33
2022-10-23T05:47:19.359Z,-114.88
2022-10-23T05:48:33.375Z,-114.96
2022-10-23T05:49:20.320Z,-115.27
2022-10-23T05:50:19.319Z,-115.45
2022-10-23T05:51:19.303Z,-115.56
2022-10-23T05:52:19.291Z,-115.61
2022-10-23T05:53:19.270Z,-115.64
2022-10-23T05:54:19.281Z,-115.42
2022-10-23T05:55:19.299Z,-115.25
2022-10-23T05:56:19.231Z,-115.30
2022-10-23T05:57:22.240Z,-115.44
2022-10-23T05:58:22.213Z,-115.21
2022-10-23T05:59:22.078Z,-115.16
2022-10-23T06:00:19.172Z,-115.41
2022-10-23T06:01:19.211Z,-115.77
2022-10-23T06:02:19.204Z,-115.30
2022-10-23T06:03:19.133Z,-115.36
2022-10-23T06:04:19.114Z,-115.36
2022-10-23T06:05:19.105Z,-115.76
2022-10-23T06:06:19.145Z,-115.79
2022-10-23T06:07:19.076Z,-115.86
2022-10-23T06:08:19.066Z,-115.81
2022-10-23T06:09:19.052Z,-115.75
2022-10-23T06:10:19.038Z,-115.75
2022-10-23T06:11:19.029Z,-115.48
2022-10-23T06:12:19.055Z,-115.59
2022-10-23T06:13:18.994Z,-115.61
2022-10-23T06:14:18.977Z,-115.69
2022-10-23T06:15:18.968Z,-115.60
2022-10-23T06:16:18.958Z,-115.69
2022-10-23T06:17:21.971Z,-115.63
2022-10-23T06:18:21.990Z,-114.99
2022-10-23T06:19:18.939Z,-114.74
2022-10-23T06:20:18.899Z,-114.81
2022-10-23T06:21:18.879Z,-114.87
2022-10-23T06:23:18.866Z,-114.76
2022-10-23T06:24:18.889Z,-115.08
2022-10-23T06:25:18.831Z,-115.24
2022-10-23T06:26:18.812Z,-115.40
2022-10-23T06:27:18.805Z,-115.34
2022-10-23T06:28:20.616Z,-115.57
2022-10-23T06:29:18.771Z,-115.54
2022-10-23T06:30:18.783Z,-115.76
2022-10-23T06:31:18.765Z,-115.96
2022-10-23T06:32:18.729Z,-116.07
2022-10-23T06:33:18.713Z,-116.09
2022-10-23T06:34:18.723Z,-116.06
2022-10-23T06:35:18.693Z,-116.16
2022-10-23T06:36:18.702Z,-116.34
2022-10-23T06:37:21.660Z,-116.41
2022-10-23T06:38:21.654Z,-116.19
2022-10-23T06:39:18.637Z,-116.18
2022-10-23T06:40:18.644Z,-116.45
2022-10-23T06:41:18.633Z,-116.27
2022-10-23T06:42:18.585Z,-116.43
2022-10-23T06:43:18.574Z,-117.04
2022-10-23T06:44:18.566Z,-117.21
2022-10-23T06:45:18.585Z,-117.94
2022-10-23T06:46:18.535Z,-118.22
2022-10-23T06:47:18.631Z,-118.95
2022-10-23T06:48:18.510Z,-119.44
2022-10-23T06:49:18.496Z,-119.58
2022-10-23T06:50:18.477Z,-119.54
2022-10-23T06:51:18.497Z,-119.44
2022-10-23T06:52:41.606Z,-119.40
2022-10-23T06:53:19.446Z,-119.39
2022-10-23T06:54:18.426Z,-119.31
2022-10-23T06:55:18.417Z,-119.08
2022-10-23T06:56:18.410Z,-119.21
2022-10-23T06:57:21.439Z,-119.25
2022-10-23T06:58:21.379Z,-118.86
2022-10-23T06:59:18.359Z,-118.90
2022-10-23T07:00:18.341Z,-119.11
2022-10-23T07:01:18.473Z,-118.79
2022-10-23T07:02:18.334Z,-119.16
2022-10-23T07:03:18.378Z,-119.60
2022-10-23T07:04:18.282Z,-119.72
2022-10-23T07:05:18.273Z,-119.69
2022-10-23T07:06:18.261Z,-119.88
2022-10-23T07:07:18.251Z,-120.62
2022-10-23T07:08:18.230Z,-120.99
2022-10-23T07:09:18.247Z,-121.52
2022-10-23T07:10:18.205Z,-121.68
2022-10-23T07:11:18.193Z,-121.91
2022-10-23T07:12:18.203Z,-122.51
2022-10-23T07:13:18.218Z,-123.03
2022-10-23T07:14:18.143Z,-123.03
2022-10-23T07:15:18.136Z,-123.45
2022-10-23T07:16:18.122Z,-123.73
2022-10-23T07:17:21.113Z,-124.32
2022-10-23T07:18:21.137Z,-123.60
2022-10-23T07:19:18.122Z,-123.83
2022-10-23T07:20:18.072Z,-124.23
2022-10-23T07:21:18.065Z,-125.33
2022-10-23T07:22:18.045Z,-126.03
2022-10-23T07:23:18.037Z,-126.82
2022-10-23T07:24:18.066Z,-126.83
2022-10-23T07:25:18.007Z,-126.85
2022-10-23T07:26:17.996Z,-126.80
2022-10-23T07:27:17.985Z,-127.24
2022-10-23T07:28:17.967Z,-127.24
2022-10-23T07:29:17.965Z,-127.16
2022-10-23T07:30:17.972Z,-127.24
2022-10-23T07:31:17.928Z,-128.22
2022-10-23T07:32:17.911Z,-128.46
2022-10-23T07:33:17.907Z,-128.46
2022-10-23T07:34:17.900Z,-128.46
2022-10-23T07:35:17.913Z,-129.68
2022-10-23T07:36:17.860Z,-129.68
2022-10-23T07:37:20.850Z,-129.68
2022-10-23T07:38:20.848Z,-129.68
2022-10-23T07:39:17.830Z,-129.68
2022-10-23T07:40:17.840Z,-129.68
2022-10-23T07:41:17.799Z,-130.90
2022-10-23T07:42:17.781Z,-130.90
2022-10-23T07:43:17.770Z,-130.90
2022-10-23T07:44:17.753Z,-129.68
2022-10-23T07:45:17.748Z,-130.90
2022-10-23T07:46:17.782Z,-130.90
2022-10-23T07:47:17.713Z,-130.90
2022-10-23T07:48:17.693Z,-132.12
2022-10-23T07:49:17.684Z,-132.12
2022-10-23T07:50:17.665Z,-132.12
2022-10-23T07:51:17.666Z,-132.12
2022-10-23T07:52:17.693Z,-132.12
2022-10-23T07:53:17.626Z,-133.34
2022-10-23T07:54:17.615Z,-133.34
2022-10-23T07:55:17.604Z,-133.34
2022-10-23T07:56:17.590Z,-133.34
2022-10-23T07:57:20.613Z,-133.34
2022-10-23T07:58:20.567Z,-133.34
2022-10-23T07:59:17.548Z,-133.34
2022-10-23T08:00:17.553Z,-133.34
2022-10-23T08:01:17.571Z,-133.34
2022-10-23T08:02:17.543Z,-133.34
2022-10-23T08:03:17.517Z,-134.56
2022-10-23T08:04:17.479Z,-133.34
2022-10-23T08:05:17.472Z,-133.34
2022-10-23T08:06:17.448Z,-133.34
2022-10-23T08:07:17.438Z,-133.34
2022-10-23T08:08:17.469Z,-133.34
2022-10-23T08:09:17.409Z,-133.34
2022-10-23T08:10:17.390Z,-133.34
2022-10-23T08:11:17.378Z,-134.56
2022-10-23T08:12:17.364Z,-135.77
2022-10-23T08:13:17.352Z,-135.77
2022-10-23T08:14:17.368Z,-136.99
2022-10-23T08:15:17.320Z,-135.77
2022-10-23T08:16:17.370Z,-136.99
2022-10-23T08:17:21.040Z,-135.77
2022-10-23T08:18:20.292Z,-135.77
2022-10-23T08:19:17.263Z,-136.99
2022-10-23T08:20:17.252Z,-136.99
2022-10-23T08:21:17.242Z,-136.99
2022-10-23T08:22:17.255Z,-136.99
2022-10-23T08:23:17.215Z,-136.99
2022-10-23T08:24:17.193Z,-136.99
2022-10-23T08:25:18.304Z,-138.21
2022-10-23T08:26:17.175Z,-138.21
2022-10-23T08:27:17.163Z,-138.21
2022-10-23T08:28:17.166Z,-138.21
2022-10-23T08:29:17.159Z,-138.21
2022-10-23T08:30:17.115Z,-138.21
2022-10-23T08:31:17.113Z,-138.21
2022-10-23T08:32:17.148Z,-138.21
2022-10-23T08:33:17.106Z,-138.21
2022-10-23T08:34:17.086Z,-138.21
2022-10-23T08:35:17.051Z,-138.21
2022-10-23T08:36:17.027Z,-139.43
2022-10-23T08:37:20.018Z,-138.21
2022-10-23T08:38:20.020Z,-138.21
2022-10-23T08:39:17.026Z,-138.21
2022-10-23T08:40:17.000Z,-138.21
2022-10-23T08:41:16.967Z,-138.21
2022-10-23T08:42:16.950Z,-138.21
2022-10-23T08:43:16.940Z,-139.43
2022-10-23T08:44:16.968Z,-139.43
2022-10-23T08:45:16.910Z,-139.43
2022-10-23T08:46:16.900Z,-139.43
2022-10-23T08:47:16.881Z,-139.43
2022-10-23T08:48:16.861Z,-139.43
2022-10-23T08:49:16.863Z,-139.43
2022-10-23T08:50:16.910Z,-139.43
2022-10-23T08:51:16.832Z,-138.21
2022-10-23T08:52:16.866Z,-138.21
2022-10-23T08:53:16.802Z,-139.43
2022-10-23T08:54:16.783Z,-139.43
2022-10-23T08:55:16.834Z,-139.43
2022-10-23T08:56:16.759Z,-139.43
2022-10-23T08:57:19.804Z,-139.43
2022-10-23T08:58:19.744Z,-140.65
2022-10-23T08:59:16.726Z,-140.65
2022-10-23T09:00:16.723Z,-140.65
2022-10-23T09:01:16.818Z,-140.65
2022-10-23T09:02:16.776Z,-140.65
2022-10-23T09:03:16.716Z,-140.65
2022-10-23T09:04:16.646Z,-140.65
2022-10-23T09:05:16.640Z,-140.65
2022-10-23T09:06:16.616Z,-141.87
2022-10-23T09:07:16.623Z,-141.87
2022-10-23T09:08:16.596Z,-141.87
2022-10-23T09:09:16.615Z,-141.87
2022-10-23T09:10:16.599Z,-141.87
2022-10-23T09:11:16.564Z,-141.87
2022-10-23T09:12:16.548Z,-141.87
2022-10-23T09:13:16.548Z,-141.87
2022-10-23T09:14:16.509Z,-141.87
2022-10-23T09:15:16.507Z,-141.87
2022-10-23T09:16:16.690Z,-143.08
2022-10-23T09:17:19.471Z,-143.08
2022-10-23T09:18:19.474Z,-143.08
2022-10-23T09:19:16.440Z,-143.08
2022-10-23T09:20:16.429Z,-143.08
2022-10-23T09:21:16.412Z,-143.08
2022-10-23T09:22:16.433Z,-144.30
2022-10-23T09:23:16.391Z,-144.30
2022-10-23T09:24:16.372Z,-144.30
2022-10-23T09:25:16.364Z,-144.30
2022-10-23T09:26:16.416Z,-144.30
2022-10-23T09:27:16.333Z,-144.30
2022-10-23T09:28:16.321Z,-144.30
2022-10-23T09:29:16.303Z,-144.30
2022-10-23T09:30:16.294Z,-144.30
2022-10-23T09:31:16.284Z,-144.30
2022-10-23T09:32:16.294Z,-144.30
2022-10-23T09:33:16.261Z,-144.30
2022-10-23T09:34:16.259Z,-144.30
2022-10-23T09:35:16.258Z,-145.52
2022-10-23T09:36:16.208Z,-145.52
2022-10-23T09:37:20.206Z,-145.52
2022-10-23T09:38:19.198Z,-145.52
2022-10-23T09:39:16.204Z,-145.52
2022-10-23T09:40:16.188Z,-145.52
2022-10-23T09:41:16.148Z,-145.52
2022-10-23T09:42:16.128Z,-145.52
2022-10-23T09:43:16.117Z,-145.52
2022-10-23T09:44:16.129Z,-145.52
2022-10-23T09:45:16.094Z,-145.52
2022-10-23T09:46:16.073Z,-145.52
2022-10-23T09:47:16.064Z,-145.52
2022-10-23T09:48:16.071Z,-145.52
2022-10-23T09:49:16.030Z,-145.52
2022-10-23T09:50:16.046Z,-145.52
2022-10-23T09:51:16.013Z,-145.52
2022-10-23T09:52:15.992Z,-146.74
2022-10-23T09:53:15.979Z,-146.74
2022-10-23T09:54:15.962Z,-145.52
2022-10-23T09:55:15.990Z,-146.74
2022-10-23T09:56:15.933Z,-146.74
2022-10-23T09:57:18.923Z,-146.74
2022-10-23T09:58:18.914Z,-146.74
2022-10-23T09:59:15.894Z,-146.74
2022-10-23T10:00:15.878Z,-146.74
2022-10-23T10:01:15.997Z,-147.96
2022-10-23T10:02:16.002Z,-147.96
2022-10-23T10:03:15.835Z,-147.96
2022-10-23T10:04:15.825Z,-147.96
2022-10-23T10:05:15.891Z,-147.96
2022-10-23T10:06:15.797Z,-149.17
2022-10-23T10:07:15.776Z,-149.17
2022-10-23T10:08:15.772Z,-149.17
2022-10-23T10:09:15.755Z,-149.17
2022-10-23T10:10:15.739Z,-149.17
2022-10-23T10:11:15.777Z,-149.17
2022-10-23T10:12:15.719Z,-149.17
2022-10-23T10:13:15.696Z,-149.17
2022-10-23T10:14:15.679Z,-149.17
2022-10-23T10:15:15.670Z,-150.39
2022-10-23T10:16:15.659Z,-149.17
2022-10-23T10:17:18.661Z,-149.17
2022-10-23T10:18:18.642Z,-150.39
2022-10-23T10:19:15.620Z,-150.39
2022-10-23T10:20:15.601Z,-150.39
2022-10-23T10:21:15.610Z,-150.39
2022-10-23T10:22:15.575Z,-149.17
2022-10-23T10:23:15.552Z,-149.17
2022-10-23T10:24:15.543Z,-149.17
2022-10-23T10:25:15.523Z,-149.17
2022-10-23T10:26:15.545Z,-149.17
2022-10-23T10:27:15.500Z,-150.39
2022-10-23T10:28:15.484Z,-150.39
2022-10-23T10:29:15.473Z,-150.39
2022-10-23T10:30:15.534Z,-150.39
2022-10-23T10:31:15.473Z,-150.39
2022-10-23T10:32:15.458Z,-150.39
2022-10-23T10:33:15.416Z,-150.39
2022-10-23T10:34:15.407Z,-150.39
2022-10-23T10:35:15.386Z,-150.39
2022-10-23T10:36:15.435Z,-150.39
2022-10-23T10:37:18.385Z,-151.61
2022-10-23T10:38:18.357Z,-151.61
2022-10-23T10:39:15.328Z,-151.61
2022-10-23T10:40:15.344Z,-150.39
2022-10-23T10:41:15.305Z,-150.39
2022-10-23T10:42:15.340Z,-150.39
2022-10-23T10:43:15.271Z,-150.39
2022-10-23T10:44:15.272Z,-150.39
2022-10-23T10:45:15.250Z,-150.39
2022-10-23T10:47:18.484Z,-150.39
2022-10-23T10:48:16.231Z,-150.39
2022-10-23T10:49:15.193Z,-150.39
2022-10-23T10:50:15.216Z,-150.39
2022-10-23T10:51:15.171Z,-150.39
2022-10-23T10:52:15.213Z,-150.39
2022-10-23T10:53:15.134Z,-150.39
2022-10-23T10:54:15.132Z,-150.39
2022-10-23T10:55:15.107Z,-150.39
2022-10-23T10:56:15.095Z,-150.39
2022-10-23T10:57:18.107Z,-150.39
2022-10-23T10:58:18.119Z,-149.17
2022-10-23T10:59:15.053Z,-149.17
2022-10-23T11:00:15.147Z,-149.17
2022-10-23T11:01:15.132Z,-150.39
2022-10-23T11:02:15.120Z,-150.39
2022-10-23T11:03:15.050Z,-150.39
2022-10-23T11:04:14.989Z,-150.39
2022-10-23T11:05:14.975Z,-150.39
2022-10-23T11:06:14.980Z,-150.39
2022-10-23T11:07:14.947Z,-150.39
2022-10-23T11:08:14.936Z,-150.39
2022-10-23T11:09:20.164Z,-150.39
2022-10-23T11:10:15.935Z,-150.39
2022-10-23T11:11:14.888Z,-151.61
2022-10-23T11:12:14.890Z,-151.61
2022-10-23T11:13:14.889Z,-151.61
2022-10-23T11:14:14.858Z,-151.61
2022-10-23T11:15:14.860Z,-151.61
2022-10-23T11:16:14.840Z,-151.61
2022-10-23T11:17:17.811Z,-151.61
2022-10-23T11:18:17.812Z,-152.83
2022-10-23T11:19:14.790Z,-152.83
2022-10-23T11:20:14.825Z,-152.83
2022-10-23T11:21:14.762Z,-152.83
2022-10-23T11:22:14.753Z,-152.83
2022-10-23T11:23:14.735Z,-152.83
2022-10-23T11:24:14.757Z,-152.83
2022-10-23T11:25:14.737Z,-152.83
2022-10-23T11:26:18.852Z,-152.83
2022-10-23T11:27:15.682Z,-152.83
2022-10-23T11:28:14.669Z,-152.83
2022-10-23T11:29:14.665Z,-152.83
2022-10-23T11:30:14.666Z,-152.83
2022-10-23T11:31:14.627Z,-152.83
2022-10-23T11:32:14.621Z,-152.83
2022-10-23T11:33:14.604Z,-152.83
2022-10-23T11:34:14.623Z,-152.83
2022-10-23T11:35:14.578Z,-152.83
2022-10-23T11:36:14.588Z,-154.04
2022-10-23T11:37:17.549Z,-154.04
2022-10-23T11:38:17.550Z,-154.04
2022-10-23T11:39:14.532Z,-154.04
2022-10-23T11:40:14.520Z,-155.26
2022-10-23T11:41:14.540Z,-155.26
2022-10-23T11:42:14.493Z,-155.26
2022-10-23T11:43:14.471Z,-155.26
2022-10-23T11:44:14.462Z,-155.26
2022-10-23T11:45:14.450Z,-155.26
2022-10-23T11:46:14.445Z,-155.26
2022-10-23T11:47:14.478Z,-155.26
2022-10-23T11:48:14.429Z,-155.26
2022-10-23T11:49:14.423Z,-155.26
2022-10-23T11:50:14.374Z,-155.26
2022-10-23T11:51:14.363Z,-155.26
2022-10-23T11:52:14.353Z,-155.26
2022-10-23T11:53:15.543Z,-155.26
2022-10-23T11:54:14.315Z,-155.26
2022-10-23T11:55:14.305Z,-155.26
2022-10-23T11:56:14.296Z,-155.26
2022-10-23T11:57:17.316Z,-155.26
2022-10-23T11:58:17.277Z,-155.26
2022-10-23T11:59:14.247Z,-155.26
2022-10-23T12:00:14.227Z,-156.48
2022-10-23T12:01:14.319Z,-156.48
2022-10-23T12:02:14.258Z,-156.48
2022-10-23T12:03:14.207Z,-156.48
2022-10-23T12:04:14.168Z,-156.48
2022-10-23T12:05:14.159Z,-156.48
2022-10-23T12:06:14.141Z,-156.48
2022-10-23T12:07:14.171Z,-156.48
2022-10-23T12:08:14.111Z,-156.48
2022-10-23T12:09:14.101Z,-156.48
2022-10-23T12:10:14.082Z,-155.26